<?xml version="1.0" encoding="UTF-8" standalone="no" ?>
<gpx xmlns="http://www.topografix.com/GPX/1/1" xmlns:xsi="http://www.w3.org/2001/XMLSchema-instance" xsi:schemaLocation="http://www.topografix.com/GPX/1/1 http://www.topografix.com/GPX/1/1/gpx.xsd" version="1.1" creator="VisuGPX - https://www.visugpx.com">
  <metadata>
    <name>Vallée du Perrier new</name>
  </metadata>
  <trk>
    <name><![CDATA[11774834-Perrier]]></name>
    <extensions>
      <line xmlns="http://www.topografix.com/GPX/gpx_style/0/2">
        <color>0000FF</color>
        <width>4</width>
      </line>
    </extensions>
    <trkseg>
      <trkpt lat="48.61819" lon="-3.2121">
        <ele>94</ele>
        <time>2020-07-30T07:39:48Z</time>
      </trkpt>
      <trkpt lat="48.61844" lon="-3.21253">
        <ele>91</ele>
        <time>2020-07-30T07:40:39Z</time>
      </trkpt>
      <trkpt lat="48.61864" lon="-3.21294">
        <ele>91</ele>
        <time>2020-07-30T07:41:23Z</time>
      </trkpt>
      <trkpt lat="48.61894" lon="-3.2131">
        <ele>90</ele>
        <time>2020-07-30T07:42:06Z</time>
      </trkpt>
      <trkpt lat="48.61927" lon="-3.21325">
        <ele>89</ele>
        <time>2020-07-30T07:42:52Z</time>
      </trkpt>
      <trkpt lat="48.61971" lon="-3.21308">
        <ele>90</ele>
        <time>2020-07-30T07:43:53Z</time>
      </trkpt>
      <trkpt lat="48.62005" lon="-3.21276">
        <ele>92</ele>
        <time>2020-07-30T07:44:46Z</time>
      </trkpt>
      <trkpt lat="48.62035" lon="-3.21263">
        <ele>92</ele>
        <time>2020-07-30T07:45:28Z</time>
      </trkpt>
      <trkpt lat="48.62108" lon="-3.21273">
        <ele>90</ele>
        <time>2020-07-30T07:47:05Z</time>
      </trkpt>
      <trkpt lat="48.62148" lon="-3.21264">
        <ele>88</ele>
        <time>2020-07-30T07:47:59Z</time>
      </trkpt>
      <trkpt lat="48.6219" lon="-3.21274">
        <ele>88</ele>
        <time>2020-07-30T07:48:56Z</time>
      </trkpt>
      <trkpt lat="48.62223" lon="-3.21277">
        <ele>89</ele>
        <time>2020-07-30T07:49:40Z</time>
      </trkpt>
      <trkpt lat="48.6228" lon="-3.21243">
        <ele>88</ele>
        <time>2020-07-30T07:51:02Z</time>
      </trkpt>
      <trkpt lat="48.62306" lon="-3.21221">
        <ele>88</ele>
        <time>2020-07-30T07:51:42Z</time>
      </trkpt>
      <trkpt lat="48.62351" lon="-3.21229">
        <ele>87</ele>
        <time>2020-07-30T07:52:42Z</time>
      </trkpt>
      <trkpt lat="48.62387" lon="-3.21192">
        <ele>87</ele>
        <time>2020-07-30T07:53:40Z</time>
      </trkpt>
      <trkpt lat="48.62437" lon="-3.21194">
        <ele>85</ele>
        <time>2020-07-30T07:54:47Z</time>
      </trkpt>
      <trkpt lat="48.62501" lon="-3.21141">
        <ele>83</ele>
        <time>2020-07-30T07:56:24Z</time>
      </trkpt>
      <trkpt lat="48.62544" lon="-3.21138">
        <ele>83</ele>
        <time>2020-07-30T07:57:22Z</time>
      </trkpt>
      <trkpt lat="48.62635" lon="-3.21167">
        <ele>80</ele>
        <time>2020-07-30T07:59:26Z</time>
      </trkpt>
      <trkpt lat="48.62685" lon="-3.21167">
        <ele>79</ele>
        <time>2020-07-30T08:00:33Z</time>
      </trkpt>
      <trkpt lat="48.6272" lon="-3.21197">
        <ele>76</ele>
        <time>2020-07-30T08:01:26Z</time>
      </trkpt>
      <trkpt lat="48.62741" lon="-3.21232">
        <ele>75</ele>
        <time>2020-07-30T08:02:08Z</time>
      </trkpt>
      <trkpt lat="48.62752" lon="-3.21231">
        <ele>75</ele>
        <time>2020-07-30T08:02:23Z</time>
      </trkpt>
      <trkpt lat="48.62783" lon="-3.21226">
        <ele>76</ele>
        <time>2020-07-30T08:03:04Z</time>
      </trkpt>
      <trkpt lat="48.62803" lon="-3.21206">
        <ele>76</ele>
        <time>2020-07-30T08:03:36Z</time>
      </trkpt>
      <trkpt lat="48.62816" lon="-3.21167">
        <ele>78</ele>
        <time>2020-07-30T08:04:15Z</time>
      </trkpt>
      <trkpt lat="48.62841" lon="-3.21164">
        <ele>79</ele>
        <time>2020-07-30T08:04:48Z</time>
      </trkpt>
      <trkpt lat="48.62891" lon="-3.21188">
        <ele>80</ele>
        <time>2020-07-30T08:05:58Z</time>
      </trkpt>
      <trkpt lat="48.62912" lon="-3.21196">
        <ele>80</ele>
        <time>2020-07-30T08:06:27Z</time>
      </trkpt>
      <trkpt lat="48.62971" lon="-3.21208">
        <ele>80</ele>
        <time>2020-07-30T08:07:47Z</time>
      </trkpt>
      <trkpt lat="48.63011" lon="-3.21231">
        <ele>80</ele>
        <time>2020-07-30T08:08:44Z</time>
      </trkpt>
      <trkpt lat="48.63048" lon="-3.21249">
        <ele>80</ele>
        <time>2020-07-30T08:09:36Z</time>
      </trkpt>
      <trkpt lat="48.63086" lon="-3.21285">
        <ele>82</ele>
        <time>2020-07-30T08:10:35Z</time>
      </trkpt>
      <trkpt lat="48.63137" lon="-3.2131">
        <ele>82</ele>
        <time>2020-07-30T08:11:47Z</time>
      </trkpt>
      <trkpt lat="48.63195" lon="-3.21338">
        <ele>80</ele>
        <time>2020-07-30T08:13:08Z</time>
      </trkpt>
      <trkpt lat="48.63256" lon="-3.21347">
        <ele>80</ele>
        <time>2020-07-30T08:14:30Z</time>
      </trkpt>
      <trkpt lat="48.63314" lon="-3.2138">
        <ele>77</ele>
        <time>2020-07-30T08:15:53Z</time>
      </trkpt>
      <trkpt lat="48.63364" lon="-3.21388">
        <ele>74</ele>
        <time>2020-07-30T08:17:00Z</time>
      </trkpt>
      <trkpt lat="48.63392" lon="-3.21394">
        <ele>72</ele>
        <time>2020-07-30T08:17:38Z</time>
      </trkpt>
      <trkpt lat="48.63413" lon="-3.21369">
        <ele>74</ele>
        <time>2020-07-30T08:18:13Z</time>
      </trkpt>
      <trkpt lat="48.63448" lon="-3.21343">
        <ele>74</ele>
        <time>2020-07-30T08:19:05Z</time>
      </trkpt>
      <trkpt lat="48.6347" lon="-3.21335">
        <ele>73</ele>
        <time>2020-07-30T08:19:35Z</time>
      </trkpt>
      <trkpt lat="48.63497" lon="-3.2131">
        <ele>71</ele>
        <time>2020-07-30T08:20:18Z</time>
      </trkpt>
      <trkpt lat="48.63514" lon="-3.2128">
        <ele>71</ele>
        <time>2020-07-30T08:20:53Z</time>
      </trkpt>
      <trkpt lat="48.63529" lon="-3.21273">
        <ele>71</ele>
        <time>2020-07-30T08:21:13Z</time>
      </trkpt>
      <trkpt lat="48.63533" lon="-3.21266">
        <ele>71</ele>
        <time>2020-07-30T08:21:22Z</time>
      </trkpt>
      <trkpt lat="48.63537" lon="-3.2134">
        <ele>69</ele>
        <time>2020-07-30T08:22:27Z</time>
      </trkpt>
      <trkpt lat="48.6353" lon="-3.21401">
        <ele>69</ele>
        <time>2020-07-30T08:23:22Z</time>
      </trkpt>
      <trkpt lat="48.63508" lon="-3.21477">
        <ele>70</ele>
        <time>2020-07-30T08:24:35Z</time>
      </trkpt>
      <trkpt lat="48.63503" lon="-3.21589">
        <ele>74</ele>
        <time>2020-07-30T08:26:14Z</time>
      </trkpt>
      <trkpt lat="48.6349" lon="-3.21633">
        <ele>76</ele>
        <time>2020-07-30T08:26:56Z</time>
      </trkpt>
      <trkpt lat="48.6343" lon="-3.21627">
        <ele>77</ele>
        <time>2020-07-30T08:28:17Z</time>
      </trkpt>
      <trkpt lat="48.63375" lon="-3.21683">
        <ele>81</ele>
        <time>2020-07-30T08:29:45Z</time>
      </trkpt>
      <trkpt lat="48.63335" lon="-3.21746">
        <ele>82</ele>
        <time>2020-07-30T08:31:02Z</time>
      </trkpt>
      <trkpt lat="48.634" lon="-3.21793">
        <ele>81</ele>
        <time>2020-07-30T08:32:38Z</time>
      </trkpt>
      <trkpt lat="48.63389" lon="-3.21876">
        <ele>80</ele>
        <time>2020-07-30T08:33:53Z</time>
      </trkpt>
      <trkpt lat="48.63396" lon="-3.2195">
        <ele>78</ele>
        <time>2020-07-30T08:34:59Z</time>
      </trkpt>
      <trkpt lat="48.63387" lon="-3.22067">
        <ele>79</ele>
        <time>2020-07-30T08:36:43Z</time>
      </trkpt>
      <trkpt lat="48.63378" lon="-3.22094">
        <ele>79</ele>
        <time>2020-07-30T08:37:09Z</time>
      </trkpt>
      <trkpt lat="48.63476" lon="-3.22319">
        <ele>87</ele>
        <time>2020-07-30T08:41:07Z</time>
      </trkpt>
      <trkpt lat="48.63542" lon="-3.22343">
        <ele>86</ele>
        <time>2020-07-30T08:42:38Z</time>
      </trkpt>
      <trkpt lat="48.63625" lon="-3.2234">
        <ele>85</ele>
        <time>2020-07-30T08:44:28Z</time>
      </trkpt>
      <trkpt lat="48.63715" lon="-3.22395">
        <ele>86</ele>
        <time>2020-07-30T08:46:38Z</time>
      </trkpt>
      <trkpt lat="48.63534" lon="-3.22528">
        <ele>92</ele>
        <time>2020-07-30T08:51:06Z</time>
      </trkpt>
      <trkpt lat="48.63401" lon="-3.22654">
        <ele>98</ele>
        <time>2020-07-30T08:54:36Z</time>
      </trkpt>
      <trkpt lat="48.63308" lon="-3.22712">
        <ele>101</ele>
        <time>2020-07-30T08:56:50Z</time>
      </trkpt>
      <trkpt lat="48.63217" lon="-3.22753">
        <ele>101</ele>
        <time>2020-07-30T08:58:57Z</time>
      </trkpt>
      <trkpt lat="48.63174" lon="-3.22782">
        <ele>101</ele>
        <time>2020-07-30T09:00:00Z</time>
      </trkpt>
      <trkpt lat="48.63046" lon="-3.22813">
        <ele>101</ele>
        <time>2020-07-30T09:02:53Z</time>
      </trkpt>
      <trkpt lat="48.62971" lon="-3.22892">
        <ele>103</ele>
        <time>2020-07-30T09:04:55Z</time>
      </trkpt>
      <trkpt lat="48.63002" lon="-3.2299">
        <ele>104</ele>
        <time>2020-07-30T09:06:30Z</time>
      </trkpt>
      <trkpt lat="48.63008" lon="-3.23061">
        <ele>105</ele>
        <time>2020-07-30T09:07:34Z</time>
      </trkpt>
      <trkpt lat="48.62992" lon="-3.23125">
        <ele>107</ele>
        <time>2020-07-30T09:08:34Z</time>
      </trkpt>
      <trkpt lat="48.62994" lon="-3.23239">
        <ele>105</ele>
        <time>2020-07-30T09:10:14Z</time>
      </trkpt>
      <trkpt lat="48.62981" lon="-3.2333">
        <ele>104</ele>
        <time>2020-07-30T09:11:37Z</time>
      </trkpt>
      <trkpt lat="48.62994" lon="-3.23473">
        <ele>102</ele>
        <time>2020-07-30T09:13:44Z</time>
      </trkpt>
      <trkpt lat="48.63025" lon="-3.23501">
        <ele>102</ele>
        <time>2020-07-30T09:14:32Z</time>
      </trkpt>
      <trkpt lat="48.63093" lon="-3.23551">
        <ele>103</ele>
        <time>2020-07-30T09:16:13Z</time>
      </trkpt>
      <trkpt lat="48.63158" lon="-3.23603">
        <ele>103</ele>
        <time>2020-07-30T09:17:51Z</time>
      </trkpt>
      <trkpt lat="48.63143" lon="-3.23697">
        <ele>105</ele>
        <time>2020-07-30T09:19:16Z</time>
      </trkpt>
      <trkpt lat="48.63143" lon="-3.23776">
        <ele>106</ele>
        <time>2020-07-30T09:20:26Z</time>
      </trkpt>
      <trkpt lat="48.63157" lon="-3.23794">
        <ele>106</ele>
        <time>2020-07-30T09:20:51Z</time>
      </trkpt>
      <trkpt lat="48.63228" lon="-3.23864">
        <ele>107</ele>
        <time>2020-07-30T09:22:44Z</time>
      </trkpt>
      <trkpt lat="48.63216" lon="-3.2389">
        <ele>107</ele>
        <time>2020-07-30T09:23:12Z</time>
      </trkpt>
      <trkpt lat="48.63218" lon="-3.23992">
        <ele>108</ele>
        <time>2020-07-30T09:24:42Z</time>
      </trkpt>
      <trkpt lat="48.63261" lon="-3.24036">
        <ele>109</ele>
        <time>2020-07-30T09:25:51Z</time>
      </trkpt>
      <trkpt lat="48.63308" lon="-3.24075">
        <ele>109</ele>
        <time>2020-07-30T09:27:02Z</time>
      </trkpt>
      <trkpt lat="48.63337" lon="-3.24089">
        <ele>109</ele>
        <time>2020-07-30T09:27:43Z</time>
      </trkpt>
      <trkpt lat="48.63353" lon="-3.24153">
        <ele>107</ele>
        <time>2020-07-30T09:28:43Z</time>
      </trkpt>
      <trkpt lat="48.63365" lon="-3.24211">
        <ele>107</ele>
        <time>2020-07-30T09:29:37Z</time>
      </trkpt>
      <trkpt lat="48.63375" lon="-3.24229">
        <ele>107</ele>
        <time>2020-07-30T09:29:58Z</time>
      </trkpt>
      <trkpt lat="48.63401" lon="-3.24231">
        <ele>107</ele>
        <time>2020-07-30T09:30:32Z</time>
      </trkpt>
      <trkpt lat="48.63402" lon="-3.24288">
        <ele>107</ele>
        <time>2020-07-30T09:31:23Z</time>
      </trkpt>
      <trkpt lat="48.63396" lon="-3.24343">
        <ele>105</ele>
        <time>2020-07-30T09:32:12Z</time>
      </trkpt>
      <trkpt lat="48.63401" lon="-3.24395">
        <ele>102</ele>
        <time>2020-07-30T09:32:58Z</time>
      </trkpt>
      <trkpt lat="48.63384" lon="-3.24438">
        <ele>101</ele>
        <time>2020-07-30T09:33:42Z</time>
      </trkpt>
      <trkpt lat="48.63354" lon="-3.24446">
        <ele>101</ele>
        <time>2020-07-30T09:34:23Z</time>
      </trkpt>
      <trkpt lat="48.63317" lon="-3.24436">
        <ele>100</ele>
        <time>2020-07-30T09:35:13Z</time>
      </trkpt>
      <trkpt lat="48.63267" lon="-3.24454">
        <ele>99</ele>
        <time>2020-07-30T09:36:22Z</time>
      </trkpt>
      <trkpt lat="48.63223" lon="-3.24455">
        <ele>98</ele>
        <time>2020-07-30T09:37:21Z</time>
      </trkpt>
      <trkpt lat="48.63191" lon="-3.24496">
        <ele>95</ele>
        <time>2020-07-30T09:38:16Z</time>
      </trkpt>
      <trkpt lat="48.63152" lon="-3.24531">
        <ele>92</ele>
        <time>2020-07-30T09:39:17Z</time>
      </trkpt>
      <trkpt lat="48.63139" lon="-3.24569">
        <ele>91</ele>
        <time>2020-07-30T09:39:55Z</time>
      </trkpt>
      <trkpt lat="48.63136" lon="-3.24631">
        <ele>88</ele>
        <time>2020-07-30T09:40:50Z</time>
      </trkpt>
      <trkpt lat="48.63156" lon="-3.24678">
        <ele>88</ele>
        <time>2020-07-30T09:41:39Z</time>
      </trkpt>
      <trkpt lat="48.63182" lon="-3.2476">
        <ele>86</ele>
        <time>2020-07-30T09:42:59Z</time>
      </trkpt>
      <trkpt lat="48.63183" lon="-3.24811">
        <ele>82</ele>
        <time>2020-07-30T09:43:44Z</time>
      </trkpt>
      <trkpt lat="48.63217" lon="-3.24852">
        <ele>75.2</ele>
        <time>2020-07-30T09:44:14Z</time>
      </trkpt>
      <trkpt lat="48.63254" lon="-3.24866">
        <ele>73.7</ele>
        <time>2020-07-30T09:45:00Z</time>
      </trkpt>
      <trkpt lat="48.63309" lon="-3.24883">
        <ele>72.1</ele>
        <time>2020-07-30T09:46:16Z</time>
      </trkpt>
      <trkpt lat="48.6336" lon="-3.24898">
        <ele>70.7</ele>
        <time>2020-07-30T09:47:10Z</time>
      </trkpt>
      <trkpt lat="48.63391" lon="-3.2491">
        <ele>70.4</ele>
        <time>2020-07-30T09:47:42Z</time>
      </trkpt>
      <trkpt lat="48.634" lon="-3.24936">
        <ele>68.7</ele>
        <time>2020-07-30T09:48:13Z</time>
      </trkpt>
      <trkpt lat="48.63402" lon="-3.2497">
        <ele>68</ele>
        <time>2020-07-30T09:49:13Z</time>
      </trkpt>
      <trkpt lat="48.63394" lon="-3.24992">
        <ele>69.8</ele>
        <time>2020-07-30T09:50:28Z</time>
      </trkpt>
      <trkpt lat="48.6338" lon="-3.25005">
        <ele>72.2</ele>
        <time>2020-07-30T09:51:21Z</time>
      </trkpt>
      <trkpt lat="48.63358" lon="-3.25014">
        <ele>73.2</ele>
        <time>2020-07-30T09:52:15Z</time>
      </trkpt>
      <trkpt lat="48.63341" lon="-3.25025">
        <ele>72.2</ele>
        <time>2020-07-30T09:53:40Z</time>
      </trkpt>
      <trkpt lat="48.63321" lon="-3.25059">
        <ele>76.4</ele>
        <time>2020-07-30T09:54:48Z</time>
      </trkpt>
      <trkpt lat="48.63303" lon="-3.25111">
        <ele>81.1</ele>
      </trkpt>
      <trkpt lat="48.63287" lon="-3.25147">
        <ele>80.3</ele>
      </trkpt>
      <trkpt lat="48.63274" lon="-3.25151">
        <ele>78</ele>
      </trkpt>
      <trkpt lat="48.63255" lon="-3.2518">
        <ele>76.6</ele>
      </trkpt>
      <trkpt lat="48.63241" lon="-3.25193">
        <ele>75.5</ele>
      </trkpt>
      <trkpt lat="48.63211" lon="-3.25205">
        <ele>73</ele>
      </trkpt>
      <trkpt lat="48.6319" lon="-3.25205">
        <ele>72.9</ele>
      </trkpt>
      <trkpt lat="48.63168" lon="-3.252">
        <ele>74.6</ele>
      </trkpt>
      <trkpt lat="48.63141" lon="-3.25188">
        <ele>76.8</ele>
      </trkpt>
      <trkpt lat="48.63117" lon="-3.25181">
        <ele>80.1</ele>
      </trkpt>
      <trkpt lat="48.63049" lon="-3.25146">
        <ele>75.8</ele>
      </trkpt>
      <trkpt lat="48.63029" lon="-3.25148">
        <ele>76.6</ele>
      </trkpt>
      <trkpt lat="48.63017" lon="-3.25181">
        <ele>81.7</ele>
      </trkpt>
      <trkpt lat="48.62996" lon="-3.25167">
        <ele>84.3</ele>
      </trkpt>
      <trkpt lat="48.62985" lon="-3.25177">
        <ele>88.7</ele>
      </trkpt>
      <trkpt lat="48.62934" lon="-3.25138">
        <ele>94.5</ele>
      </trkpt>
      <trkpt lat="48.62893" lon="-3.25057">
        <ele>90</ele>
      </trkpt>
      <trkpt lat="48.62882" lon="-3.24972">
        <ele>85</ele>
      </trkpt>
      <trkpt lat="48.62856" lon="-3.24967">
        <ele>88.3</ele>
      </trkpt>
      <trkpt lat="48.62836" lon="-3.2495">
        <ele>88.5</ele>
        <time>2020-07-30T09:56:11Z</time>
      </trkpt>
      <trkpt lat="48.62793" lon="-3.24945">
        <ele>90.6</ele>
        <time>2020-07-30T09:56:58Z</time>
      </trkpt>
      <trkpt lat="48.62704" lon="-3.24928">
        <ele>91.5</ele>
        <time>2020-07-30T09:57:41Z</time>
      </trkpt>
      <trkpt lat="48.62649" lon="-3.24924">
        <ele>90.2</ele>
        <time>2020-07-30T09:58:56Z</time>
      </trkpt>
      <trkpt lat="48.62634" lon="-3.24914">
        <ele>87.9</ele>
      </trkpt>
      <trkpt lat="48.62606" lon="-3.24914">
        <ele>84.7</ele>
        <time>2020-07-30T10:00:03Z</time>
      </trkpt>
      <trkpt lat="48.62594" lon="-3.24921">
        <ele>83.3</ele>
        <time>2020-07-30T10:00:43Z</time>
      </trkpt>
      <trkpt lat="48.62584" lon="-3.24949">
        <ele>84.4</ele>
        <time>2020-07-30T10:01:41Z</time>
      </trkpt>
      <trkpt lat="48.62587" lon="-3.24973">
        <ele>86.8</ele>
        <time>2020-07-30T10:02:31Z</time>
      </trkpt>
      <trkpt lat="48.62599" lon="-3.24993">
        <ele>90.8</ele>
        <time>2020-07-30T10:03:36Z</time>
      </trkpt>
      <trkpt lat="48.62567" lon="-3.2501">
        <ele>85.7</ele>
        <time>2020-07-30T10:04:40Z</time>
      </trkpt>
      <trkpt lat="48.6252" lon="-3.25033">
        <ele>83.3</ele>
        <time>2020-07-30T10:05:21Z</time>
      </trkpt>
      <trkpt lat="48.625" lon="-3.25044">
        <ele>84.2</ele>
        <time>2020-07-30T10:06:36Z</time>
      </trkpt>
      <trkpt lat="48.62461" lon="-3.25033">
        <ele>88.3</ele>
        <time>2020-07-30T10:07:33Z</time>
      </trkpt>
      <trkpt lat="48.62436" lon="-3.25032">
        <ele>90.1</ele>
      </trkpt>
      <trkpt lat="48.62419" lon="-3.25032">
        <ele>91.4</ele>
        <time>2020-07-30T10:08:12Z</time>
      </trkpt>
      <trkpt lat="48.62366" lon="-3.25013">
        <ele>89.5</ele>
        <time>2020-07-30T10:09:58Z</time>
      </trkpt>
      <trkpt lat="48.62336" lon="-3.2501">
        <ele>88.7</ele>
      </trkpt>
      <trkpt lat="48.62296" lon="-3.2503">
        <ele>91.9</ele>
      </trkpt>
      <trkpt lat="48.62288" lon="-3.25003">
        <ele>94.5</ele>
      </trkpt>
      <trkpt lat="48.62298" lon="-3.24995">
        <ele>91.1</ele>
      </trkpt>
      <trkpt lat="48.62298" lon="-3.24961">
        <ele>89.1</ele>
      </trkpt>
      <trkpt lat="48.62285" lon="-3.24934">
        <ele>90.3</ele>
      </trkpt>
      <trkpt lat="48.62246" lon="-3.24898">
        <ele>90.5</ele>
      </trkpt>
      <trkpt lat="48.62194" lon="-3.24873">
        <ele>88.5</ele>
      </trkpt>
      <trkpt lat="48.62154" lon="-3.24865">
        <ele>89.1</ele>
        <time>2020-07-30T10:11:04Z</time>
      </trkpt>
      <trkpt lat="48.62134" lon="-3.24858">
        <ele>88.6</ele>
        <time>2020-07-30T10:12:14Z</time>
      </trkpt>
      <trkpt lat="48.62122" lon="-3.24855">
        <ele>88.2</ele>
        <time>2020-07-30T10:13:10Z</time>
      </trkpt>
      <trkpt lat="48.62107" lon="-3.24872">
        <ele>92.6</ele>
      </trkpt>
      <trkpt lat="48.6209" lon="-3.24878">
        <ele>93.9</ele>
        <time>2020-07-30T10:13:32Z</time>
      </trkpt>
      <trkpt lat="48.62071" lon="-3.24905">
        <ele>100.5</ele>
      </trkpt>
      <trkpt lat="48.6206" lon="-3.24921">
        <ele>104.1</ele>
        <time>2020-07-30T10:14:18Z</time>
      </trkpt>
      <trkpt lat="48.62027" lon="-3.24929">
        <ele>107.2</ele>
        <time>2020-07-30T10:15:55Z</time>
      </trkpt>
      <trkpt lat="48.62003" lon="-3.2493">
        <ele>109.2</ele>
        <time>2020-07-30T10:16:40Z</time>
      </trkpt>
      <trkpt lat="48.61951" lon="-3.24915">
        <ele>110</ele>
        <time>2020-07-30T10:17:31Z</time>
      </trkpt>
      <trkpt lat="48.61935" lon="-3.24864">
        <ele>97.9</ele>
        <time>2020-07-30T10:18:11Z</time>
      </trkpt>
      <trkpt lat="48.61865" lon="-3.24811">
        <ele>91.3</ele>
        <time>2020-07-30T10:19:03Z</time>
      </trkpt>
      <trkpt lat="48.61827" lon="-3.24776">
        <ele>94.1</ele>
        <time>2020-07-30T10:20:02Z</time>
      </trkpt>
      <trkpt lat="48.61795" lon="-3.24764">
        <ele>99.8</ele>
        <time>2020-07-30T10:20:34Z</time>
      </trkpt>
      <trkpt lat="48.618" lon="-3.24707">
        <ele>92.6</ele>
        <time>2020-07-30T10:21:43Z</time>
      </trkpt>
      <trkpt lat="48.61788" lon="-3.24636">
        <ele>89.6</ele>
        <time>2020-07-30T10:22:07Z</time>
      </trkpt>
      <trkpt lat="48.61763" lon="-3.24593">
        <ele>89.1</ele>
        <time>2020-07-30T10:22:43Z</time>
      </trkpt>
      <trkpt lat="48.61745" lon="-3.24584">
        <ele>89</ele>
        <time>2020-07-30T10:26:05Z</time>
      </trkpt>
      <trkpt lat="48.61731" lon="-3.24583">
        <ele>89</ele>
        <time>2020-07-30T10:26:59Z</time>
      </trkpt>
      <trkpt lat="48.61709" lon="-3.24562">
        <ele>88.7</ele>
        <time>2020-07-30T10:28:04Z</time>
      </trkpt>
      <trkpt lat="48.61675" lon="-3.24529">
        <ele>89.7</ele>
        <time>2020-07-30T10:29:01Z</time>
      </trkpt>
      <trkpt lat="48.61609" lon="-3.24571">
        <ele>94.6</ele>
      </trkpt>
      <trkpt lat="48.616" lon="-3.24561">
        <ele>93.2</ele>
        <time>2020-07-30T10:30:21Z</time>
      </trkpt>
      <trkpt lat="48.6157" lon="-3.24576">
        <ele>99</ele>
        <time>2020-07-30T10:30:57Z</time>
      </trkpt>
      <trkpt lat="48.61528" lon="-3.2461">
        <ele>100</ele>
        <time>2020-07-30T10:32:01Z</time>
      </trkpt>
      <trkpt lat="48.61494" lon="-3.24624">
        <ele>100</ele>
        <time>2020-07-30T10:32:48Z</time>
      </trkpt>
      <trkpt lat="48.61483" lon="-3.24538">
        <ele>94</ele>
        <time>2020-07-30T10:34:05Z</time>
      </trkpt>
      <trkpt lat="48.61471" lon="-3.24475">
        <ele>94</ele>
        <time>2020-07-30T10:35:03Z</time>
      </trkpt>
      <trkpt lat="48.61447" lon="-3.24433">
        <ele>99</ele>
        <time>2020-07-30T10:35:52Z</time>
      </trkpt>
      <trkpt lat="48.61462" lon="-3.24402">
        <ele>100</ele>
        <time>2020-07-30T10:36:26Z</time>
      </trkpt>
      <trkpt lat="48.61474" lon="-3.24413">
        <ele>98</ele>
        <time>2020-07-30T10:36:44Z</time>
      </trkpt>
      <trkpt lat="48.61491" lon="-3.24399">
        <ele>98</ele>
        <time>2020-07-30T10:37:10Z</time>
      </trkpt>
      <trkpt lat="48.61503" lon="-3.24381">
        <ele>99</ele>
        <time>2020-07-30T10:37:33Z</time>
      </trkpt>
      <trkpt lat="48.615" lon="-3.24361">
        <ele>101</ele>
        <time>2020-07-30T10:37:51Z</time>
      </trkpt>
      <trkpt lat="48.61499" lon="-3.24348">
        <ele>103</ele>
        <time>2020-07-30T10:38:02Z</time>
      </trkpt>
      <trkpt lat="48.61499" lon="-3.24316">
        <ele>105</ele>
        <time>2020-07-30T10:38:31Z</time>
      </trkpt>
      <trkpt lat="48.61467" lon="-3.24293">
        <ele>106</ele>
        <time>2020-07-30T10:39:18Z</time>
      </trkpt>
      <trkpt lat="48.61457" lon="-3.24257">
        <ele>108</ele>
        <time>2020-07-30T10:39:52Z</time>
      </trkpt>
      <trkpt lat="48.61426" lon="-3.24248">
        <ele>109</ele>
        <time>2020-07-30T10:40:35Z</time>
      </trkpt>
      <trkpt lat="48.614" lon="-3.24251">
        <ele>109</ele>
        <time>2020-07-30T10:41:09Z</time>
      </trkpt>
      <trkpt lat="48.61336" lon="-3.24229">
        <ele>112</ele>
        <time>2020-07-30T10:42:37Z</time>
      </trkpt>
      <trkpt lat="48.61288" lon="-3.24239">
        <ele>112</ele>
        <time>2020-07-30T10:43:42Z</time>
      </trkpt>
      <trkpt lat="48.61324" lon="-3.24187">
        <ele>113</ele>
        <time>2020-07-30T10:44:48Z</time>
      </trkpt>
      <trkpt lat="48.61341" lon="-3.24144">
        <ele>114</ele>
        <time>2020-07-30T10:45:32Z</time>
      </trkpt>
      <trkpt lat="48.61363" lon="-3.24071">
        <ele>114</ele>
        <time>2020-07-30T10:46:43Z</time>
      </trkpt>
      <trkpt lat="48.61397" lon="-3.23939">
        <ele>114</ele>
        <time>2020-07-30T10:48:48Z</time>
      </trkpt>
      <trkpt lat="48.61415" lon="-3.23862">
        <ele>114</ele>
        <time>2020-07-30T10:50:00Z</time>
      </trkpt>
      <trkpt lat="48.61448" lon="-3.2383">
        <ele>114</ele>
        <time>2020-07-30T10:50:52Z</time>
      </trkpt>
      <trkpt lat="48.61487" lon="-3.23813">
        <ele>115</ele>
        <time>2020-07-30T10:51:47Z</time>
      </trkpt>
      <trkpt lat="48.61549" lon="-3.23825">
        <ele>114</ele>
        <time>2020-07-30T10:53:10Z</time>
      </trkpt>
      <trkpt lat="48.61561" lon="-3.23798">
        <ele>115</ele>
        <time>2020-07-30T10:53:39Z</time>
      </trkpt>
      <trkpt lat="48.61566" lon="-3.23758">
        <ele>115</ele>
        <time>2020-07-30T10:54:15Z</time>
      </trkpt>
      <trkpt lat="48.61565" lon="-3.23736">
        <ele>115</ele>
        <time>2020-07-30T10:54:34Z</time>
      </trkpt>
      <trkpt lat="48.61541" lon="-3.2372">
        <ele>115</ele>
        <time>2020-07-30T10:55:09Z</time>
      </trkpt>
      <trkpt lat="48.61512" lon="-3.23695">
        <ele>116</ele>
        <time>2020-07-30T10:55:54Z</time>
      </trkpt>
      <trkpt lat="48.61508" lon="-3.23613">
        <ele>116</ele>
        <time>2020-07-30T10:57:06Z</time>
      </trkpt>
      <trkpt lat="48.61503" lon="-3.23523">
        <ele>115</ele>
        <time>2020-07-30T10:58:26Z</time>
      </trkpt>
      <trkpt lat="48.61473" lon="-3.23403">
        <ele>111</ele>
        <time>2020-07-30T11:00:19Z</time>
      </trkpt>
      <trkpt lat="48.6147" lon="-3.23318">
        <ele>108</ele>
        <time>2020-07-30T11:01:34Z</time>
      </trkpt>
      <trkpt lat="48.61474" lon="-3.2327">
        <ele>107</ele>
        <time>2020-07-30T11:02:17Z</time>
      </trkpt>
      <trkpt lat="48.6146" lon="-3.23179">
        <ele>106</ele>
        <time>2020-07-30T11:03:39Z</time>
      </trkpt>
      <trkpt lat="48.61443" lon="-3.23119">
        <ele>107</ele>
        <time>2020-07-30T11:04:37Z</time>
      </trkpt>
      <trkpt lat="48.61424" lon="-3.23154">
        <ele>106</ele>
        <time>2020-07-30T11:05:17Z</time>
      </trkpt>
      <trkpt lat="48.614" lon="-3.23188">
        <ele>106</ele>
        <time>2020-07-30T11:06:01Z</time>
      </trkpt>
      <trkpt lat="48.61383" lon="-3.23196">
        <ele>106</ele>
        <time>2020-07-30T11:06:24Z</time>
      </trkpt>
      <trkpt lat="48.61361" lon="-3.23197">
        <ele>106</ele>
        <time>2020-07-30T11:06:54Z</time>
      </trkpt>
      <trkpt lat="48.61326" lon="-3.23132">
        <ele>109</ele>
        <time>2020-07-30T11:08:08Z</time>
      </trkpt>
      <trkpt lat="48.61298" lon="-3.23045">
        <ele>113</ele>
        <time>2020-07-30T11:09:33Z</time>
      </trkpt>
      <trkpt lat="48.61293" lon="-3.22993">
        <ele>114</ele>
        <time>2020-07-30T11:10:19Z</time>
      </trkpt>
      <trkpt lat="48.613" lon="-3.22919">
        <ele>114</ele>
        <time>2020-07-30T11:11:25Z</time>
      </trkpt>
      <trkpt lat="48.61303" lon="-3.22853">
        <ele>116</ele>
        <time>2020-07-30T11:12:24Z</time>
      </trkpt>
      <trkpt lat="48.61299" lon="-3.22805">
        <ele>117</ele>
        <time>2020-07-30T11:13:06Z</time>
      </trkpt>
      <trkpt lat="48.61271" lon="-3.22754">
        <ele>119</ele>
        <time>2020-07-30T11:14:05Z</time>
      </trkpt>
      <trkpt lat="48.61241" lon="-3.22663">
        <ele>121</ele>
        <time>2020-07-30T11:15:35Z</time>
      </trkpt>
      <trkpt lat="48.61217" lon="-3.22626">
        <ele>123</ele>
        <time>2020-07-30T11:16:20Z</time>
      </trkpt>
      <trkpt lat="48.61152" lon="-3.22544">
        <ele>126</ele>
        <time>2020-07-30T11:18:13Z</time>
      </trkpt>
      <trkpt lat="48.61114" lon="-3.2254">
        <ele>126</ele>
        <time>2020-07-30T11:19:04Z</time>
      </trkpt>
      <trkpt lat="48.6107" lon="-3.22453">
        <ele>129</ele>
        <time>2020-07-30T11:20:41Z</time>
      </trkpt>
      <trkpt lat="48.61023" lon="-3.22413">
        <ele>132</ele>
        <time>2020-07-30T11:21:53Z</time>
      </trkpt>
      <trkpt lat="48.60977" lon="-3.22402">
        <ele>133</ele>
        <time>2020-07-30T11:22:55Z</time>
      </trkpt>
      <trkpt lat="48.60851" lon="-3.22491">
        <ele>132</ele>
        <time>2020-07-30T11:26:00Z</time>
      </trkpt>
      <trkpt lat="48.60796" lon="-3.22498">
        <ele>132</ele>
        <time>2020-07-30T11:27:14Z</time>
      </trkpt>
      <trkpt lat="48.60724" lon="-3.2249">
        <ele>133</ele>
        <time>2020-07-30T11:28:50Z</time>
      </trkpt>
      <trkpt lat="48.60656" lon="-3.22476">
        <ele>133</ele>
        <time>2020-07-30T11:30:22Z</time>
      </trkpt>
      <trkpt lat="48.60633" lon="-3.22536">
        <ele>132</ele>
        <time>2020-07-30T11:31:23Z</time>
      </trkpt>
      <trkpt lat="48.60607" lon="-3.22585">
        <ele>131</ele>
        <time>2020-07-30T11:32:19Z</time>
      </trkpt>
      <trkpt lat="48.60554" lon="-3.22564">
        <ele>132</ele>
        <time>2020-07-30T11:33:32Z</time>
      </trkpt>
      <trkpt lat="48.60481" lon="-3.22532">
        <ele>135</ele>
        <time>2020-07-30T11:35:13Z</time>
      </trkpt>
      <trkpt lat="48.60453" lon="-3.22515">
        <ele>136</ele>
        <time>2020-07-30T11:35:54Z</time>
      </trkpt>
      <trkpt lat="48.60432" lon="-3.22495">
        <ele>137</ele>
        <time>2020-07-30T11:36:27Z</time>
      </trkpt>
      <trkpt lat="48.60433" lon="-3.2248">
        <ele>137</ele>
        <time>2020-07-30T11:36:40Z</time>
      </trkpt>
      <trkpt lat="48.60455" lon="-3.22438">
        <ele>136</ele>
        <time>2020-07-30T11:37:27Z</time>
      </trkpt>
      <trkpt lat="48.60483" lon="-3.22386">
        <ele>136</ele>
        <time>2020-07-30T11:38:26Z</time>
      </trkpt>
      <trkpt lat="48.6051" lon="-3.22302">
        <ele>138</ele>
        <time>2020-07-30T11:39:49Z</time>
      </trkpt>
      <trkpt lat="48.60522" lon="-3.22176">
        <ele>140</ele>
        <time>2020-07-30T11:41:41Z</time>
      </trkpt>
      <trkpt lat="48.60532" lon="-3.2209">
        <ele>140</ele>
        <time>2020-07-30T11:42:58Z</time>
      </trkpt>
      <trkpt lat="48.60574" lon="-3.22058">
        <ele>140</ele>
        <time>2020-07-30T11:44:01Z</time>
      </trkpt>
      <trkpt lat="48.60667" lon="-3.21924">
        <ele>139</ele>
        <time>2020-07-30T11:46:52Z</time>
      </trkpt>
      <trkpt lat="48.60699" lon="-3.21776">
        <ele>134</ele>
        <time>2020-07-30T11:49:10Z</time>
      </trkpt>
      <trkpt lat="48.60784" lon="-3.2158">
        <ele>129</ele>
        <time>2020-07-30T11:52:37Z</time>
      </trkpt>
      <trkpt lat="48.6081" lon="-3.21532">
        <ele>127</ele>
        <time>2020-07-30T11:53:31Z</time>
      </trkpt>
      <trkpt lat="48.6082" lon="-3.21404">
        <ele>124</ele>
        <time>2020-07-30T11:55:25Z</time>
      </trkpt>
      <trkpt lat="48.6082" lon="-3.21299">
        <ele>120</ele>
        <time>2020-07-30T11:56:58Z</time>
      </trkpt>
      <trkpt lat="48.60828" lon="-3.21178">
        <ele>123</ele>
        <time>2020-07-30T11:58:45Z</time>
      </trkpt>
      <trkpt lat="48.60851" lon="-3.2094">
        <ele>126</ele>
        <time>2020-07-30T12:02:17Z</time>
      </trkpt>
      <trkpt lat="48.60868" lon="-3.20895">
        <ele>126</ele>
        <time>2020-07-30T12:03:03Z</time>
      </trkpt>
      <trkpt lat="48.60963" lon="-3.20925">
        <ele>124</ele>
        <time>2020-07-30T12:05:12Z</time>
      </trkpt>
      <trkpt lat="48.61108" lon="-3.20964">
        <ele>121</ele>
        <time>2020-07-30T12:08:29Z</time>
      </trkpt>
      <trkpt lat="48.61342" lon="-3.2105">
        <ele>108</ele>
        <time>2020-07-30T12:13:50Z</time>
      </trkpt>
      <trkpt lat="48.61481" lon="-3.21086">
        <ele>100</ele>
        <time>2020-07-30T12:16:59Z</time>
      </trkpt>
      <trkpt lat="48.61631" lon="-3.21193">
        <ele>97</ele>
        <time>2020-07-30T12:20:40Z</time>
      </trkpt>
      <trkpt lat="48.61646" lon="-3.21247">
        <ele>96</ele>
        <time>2020-07-30T12:21:32Z</time>
      </trkpt>
      <trkpt lat="48.61718" lon="-3.21264">
        <ele>97</ele>
        <time>2020-07-30T12:23:09Z</time>
      </trkpt>
      <trkpt lat="48.61819" lon="-3.2121">
        <ele>94</ele>
        <time>2020-07-30T12:25:32Z</time>
      </trkpt>
    </trkseg>
  </trk>
</gpx>